sensor_id;sensor_type;location;lat;lon;timestamp;pressure;altitude;pressure_sealevel;temperature;humidity
62057;BME280;48016;50.284;18.860;2022-12-07T00:02:19;97684.52;;;1.41;87.06
62057;BME280;48016;50.284;18.860;2022-12-07T00:04:48;97687.19;;;1.41;86.93
62057;BME280;48016;50.284;18.860;2022-12-07T00:07:15;97685.95;;;1.42;86.72
62057;BME280;48016;50.284;18.860;2022-12-07T00:09:41;97685.42;;;1.45;86.75
62057;BME280;48016;50.284;18.860;2022-12-07T00:12:08;97683.52;;;1.46;86.59
62057;BME280;48016;50.284;18.860;2022-12-07T00:14:35;97683.19;;;1.47;86.88
62057;BME280;48016;50.284;18.860;2022-12-07T00:17:01;97681.05;;;1.47;86.71
62057;BME280;48016;50.284;18.860;2022-12-07T00:19:28;97679.75;;;1.45;86.74
62057;BME280;48016;50.284;18.860;2022-12-07T00:21:54;97676.94;;;1.45;87.07
62057;BME280;48016;50.284;18.860;2022-12-07T00:24:21;97676.80;;;1.45;86.85
62057;BME280;48016;50.284;18.860;2022-12-07T00:26:48;97677.21;;;1.45;86.92
62057;BME280;48016;50.284;18.860;2022-12-07T00:29:19;97676.60;;;1.44;86.89
62057;BME280;48016;50.284;18.860;2022-12-07T00:31:46;97677.87;;;1.44;86.72
62057;BME280;48016;50.284;18.860;2022-12-07T00:34:19;97678.89;;;1.46;86.57
62057;BME280;48016;50.284;18.860;2022-12-07T00:36:47;97673.59;;;1.47;86.55
62057;BME280;48016;50.284;18.860;2022-12-07T00:39:14;97672.90;;;1.47;86.55
62057;BME280;48016;50.284;18.860;2022-12-07T00:41:41;97668.35;;;1.48;86.69
62057;BME280;48016;50.284;18.860;2022-12-07T00:44:08;97668.55;;;1.49;86.83
62057;BME280;48016;50.284;18.860;2022-12-07T00:46:34;97663.20;;;1.45;86.56
62057;BME280;48016;50.284;18.860;2022-12-07T00:49:01;97663.26;;;1.42;86.70
62057;BME280;48016;50.284;18.860;2022-12-07T00:51:28;97662.45;;;1.39;86.62
62057;BME280;48016;50.284;18.860;2022-12-07T00:53:54;97660.40;;;1.38;86.65
62057;BME280;48016;50.284;18.860;2022-12-07T00:56:23;97661.34;;;1.39;86.63
62057;BME280;48016;50.284;18.860;2022-12-07T01:01:18;97662.92;;;1.43;86.48
62057;BME280;48016;50.284;18.860;2022-12-07T01:03:45;97657.30;;;1.44;86.63
62057;BME280;48016;50.284;18.860;2022-12-07T01:06:15;97655.15;;;1.46;86.78
62057;BME280;48016;50.284;18.860;2022-12-07T01:08:42;97653.43;;;1.49;86.94
62057;BME280;48016;50.284;18.860;2022-12-07T01:11:12;97653.55;;;1.50;86.85
62057;BME280;48016;50.284;18.860;2022-12-07T01:13:39;97647.83;;;1.53;86.88
62057;BME280;48016;50.284;18.860;2022-12-07T01:16:06;97643.93;;;1.54;86.67
62057;BME280;48016;50.284;18.860;2022-12-07T01:18:34;97639.53;;;1.50;86.33
62057;BME280;48016;50.284;18.860;2022-12-07T01:21:04;97636.79;;;1.48;86.53
62057;BME280;48016;50.284;18.860;2022-12-07T01:23:33;97632.04;;;1.49;86.35
62057;BME280;48016;50.284;18.860;2022-12-07T01:26:06;97634.04;;;1.50;86.44
62057;BME280;48016;50.284;18.860;2022-12-07T01:28:33;97636.61;;;1.52;86.49
62057;BME280;48016;50.284;18.860;2022-12-07T01:31:14;97639.27;;;1.52;86.44
62057;BME280;48016;50.284;18.860;2022-12-07T01:33:43;97640.30;;;1.51;86.76
62057;BME280;48016;50.284;18.860;2022-12-07T01:36:23;97645.39;;;1.52;86.89
62057;BME280;48016;50.284;18.860;2022-12-07T01:38:56;97646.23;;;1.53;86.73
62057;BME280;48016;50.284;18.860;2022-12-07T01:41:25;97645.18;;;1.52;86.52
62057;BME280;48016;50.284;18.860;2022-12-07T01:46:42;97645.60;;;1.51;86.50
62057;BME280;48016;50.284;18.860;2022-12-07T01:49:14;97642.86;;;1.53;86.71
62057;BME280;48016;50.284;18.860;2022-12-07T01:51:43;97639.20;;;1.55;86.62
62057;BME280;48016;50.284;18.860;2022-12-07T01:54:12;97635.65;;;1.56;86.69
62057;BME280;48016;50.284;18.860;2022-12-07T01:56:44;97636.52;;;1.54;86.74
62057;BME280;48016;50.284;18.860;2022-12-07T01:59:13;97638.45;;;1.54;86.71
62057;BME280;48016;50.284;18.860;2022-12-07T02:01:40;97638.19;;;1.55;86.83
62057;BME280;48016;50.284;18.860;2022-12-07T02:04:06;97636.89;;;1.53;86.67
62057;BME280;48016;50.284;18.860;2022-12-07T02:06:35;97636.86;;;1.50;86.47
62057;BME280;48016;50.284;18.860;2022-12-07T02:09:03;97635.41;;;1.47;86.54
62057;BME280;48016;50.284;18.860;2022-12-07T02:11:30;97632.38;;;1.46;86.60
62057;BME280;48016;50.284;18.860;2022-12-07T02:13:57;97633.15;;;1.45;86.59
62057;BME280;48016;50.284;18.860;2022-12-07T02:21:53;97629.10;;;1.53;87.03
62057;BME280;48016;50.284;18.860;2022-12-07T02:24:40;97629.83;;;1.56;87.14
62057;BME280;48016;50.284;18.860;2022-12-07T02:27:23;97630.59;;;1.58;86.91
62057;BME280;48016;50.284;18.860;2022-12-07T02:30:03;97636.04;;;1.59;86.75
62057;BME280;48016;50.284;18.860;2022-12-07T02:32:43;97638.92;;;1.56;86.72
62057;BME280;48016;50.284;18.860;2022-12-07T02:35:17;97645.16;;;1.55;86.56
62057;BME280;48016;50.284;18.860;2022-12-07T02:43:50;97632.64;;;1.50;86.54
62057;BME280;48016;50.284;18.860;2022-12-07T02:46:17;97633.19;;;1.49;86.73
62057;BME280;48016;50.284;18.860;2022-12-07T02:48:47;97622.95;;;1.47;86.92
62057;BME280;48016;50.284;18.860;2022-12-07T02:51:17;97625.82;;;1.47;86.87
62057;BME280;48016;50.284;18.860;2022-12-07T02:53:44;97618.72;;;1.47;87.05
62057;BME280;48016;50.284;18.860;2022-12-07T03:06:42;97619.52;;;1.50;86.76
62057;BME280;48016;50.284;18.860;2022-12-07T03:09:22;97618.38;;;1.51;86.85
62057;BME280;48016;50.284;18.860;2022-12-07T03:12:13;97615.21;;;1.53;86.90
62057;BME280;48016;50.284;18.860;2022-12-07T03:14:50;97611.40;;;1.53;86.81
62057;BME280;48016;50.284;18.860;2022-12-07T03:17:27;97603.80;;;1.53;87.07
62057;BME280;48016;50.284;18.860;2022-12-07T03:20:00;97607.41;;;1.55;87.22
62057;BME280;48016;50.284;18.860;2022-12-07T03:22:31;97605.84;;;1.56;86.93
62057;BME280;48016;50.284;18.860;2022-12-07T03:25:01;97602.98;;;1.54;86.74
62057;BME280;48016;50.284;18.860;2022-12-07T03:27:35;97598.95;;;1.51;86.82
62057;BME280;48016;50.284;18.860;2022-12-07T03:30:10;97596.79;;;1.50;86.62
62057;BME280;48016;50.284;18.860;2022-12-07T03:32:51;97597.48;;;1.50;86.76
62057;BME280;48016;50.284;18.860;2022-12-07T03:35:24;97596.34;;;1.49;86.80
62057;BME280;48016;50.284;18.860;2022-12-07T03:38:02;97601.39;;;1.48;86.92
62057;BME280;48016;50.284;18.860;2022-12-07T03:40:35;97601.92;;;1.46;86.98
62057;BME280;48016;50.284;18.860;2022-12-07T03:43:04;97596.52;;;1.48;87.08
62057;BME280;48016;50.284;18.860;2022-12-07T03:48:20;97599.36;;;1.50;87.28
62057;BME280;48016;50.284;18.860;2022-12-07T03:53:29;97602.73;;;1.48;87.08
62057;BME280;48016;50.284;18.860;2022-12-07T03:56:00;97600.61;;;1.48;87.07
62057;BME280;48016;50.284;18.860;2022-12-07T03:58:29;97598.55;;;1.50;86.95
62057;BME280;48016;50.284;18.860;2022-12-07T04:00:56;97600.87;;;1.52;86.83
62057;BME280;48016;50.284;18.860;2022-12-07T04:03:23;97598.77;;;1.55;87.03
62057;BME280;48016;50.284;18.860;2022-12-07T04:05:49;97598.20;;;1.57;86.89
62057;BME280;48016;50.284;18.860;2022-12-07T04:08:16;97598.16;;;1.59;87.03
62057;BME280;48016;50.284;18.860;2022-12-07T04:10:43;97596.36;;;1.59;86.95
62057;BME280;48016;50.284;18.860;2022-12-07T04:13:09;97595.48;;;1.59;87.06
62057;BME280;48016;50.284;18.860;2022-12-07T04:15:36;97592.59;;;1.58;86.96
62057;BME280;48016;50.284;18.860;2022-12-07T04:18:02;97591.13;;;1.56;86.88
62057;BME280;48016;50.284;18.860;2022-12-07T04:20:29;97592.12;;;1.54;86.96
62057;BME280;48016;50.284;18.860;2022-12-07T04:22:56;97594.55;;;1.52;86.75
62057;BME280;48016;50.284;18.860;2022-12-07T04:25:22;97595.42;;;1.53;86.76
62057;BME280;48016;50.284;18.860;2022-12-07T04:27:49;97593.48;;;1.54;86.59
62057;BME280;48016;50.284;18.860;2022-12-07T04:30:16;97595.94;;;1.55;86.67
62057;BME280;48016;50.284;18.860;2022-12-07T04:32:42;97594.45;;;1.55;86.60
62057;BME280;48016;50.284;18.860;2022-12-07T04:35:09;97594.88;;;1.53;86.57
62057;BME280;48016;50.284;18.860;2022-12-07T04:37:36;97594.90;;;1.48;86.70
62057;BME280;48016;50.284;18.860;2022-12-07T04:40:07;97602.98;;;1.41;86.83
62057;BME280;48016;50.284;18.860;2022-12-07T04:42:34;97601.19;;;1.39;87.17
62057;BME280;48016;50.284;18.860;2022-12-07T04:45:00;97600.20;;;1.38;87.06
62057;BME280;48016;50.284;18.860;2022-12-07T04:47:27;97606.13;;;1.35;87.03
62057;BME280;48016;50.284;18.860;2022-12-07T04:49:53;97596.21;;;1.35;86.88
62057;BME280;48016;50.284;18.860;2022-12-07T04:52:20;97599.26;;;1.32;86.88
62057;BME280;48016;50.284;18.860;2022-12-07T04:54:47;97595.48;;;1.31;86.88
62057;BME280;48016;50.284;18.860;2022-12-07T04:57:13;97593.33;;;1.31;87.09
62057;BME280;48016;50.284;18.860;2022-12-07T04:59:40;97595.13;;;1.31;87.10
62057;BME280;48016;50.284;18.860;2022-12-07T05:02:06;97594.18;;;1.31;87.30
62057;BME280;48016;50.284;18.860;2022-12-07T05:04:33;97595.77;;;1.31;87.13
62057;BME280;48016;50.284;18.860;2022-12-07T05:06:59;97597.72;;;1.29;87.19
62057;BME280;48016;50.284;18.860;2022-12-07T05:09:26;97599.20;;;1.26;87.14
62057;BME280;48016;50.284;18.860;2022-12-07T05:11:53;97597.88;;;1.22;87.01
62057;BME280;48016;50.284;18.860;2022-12-07T05:14:20;97601.00;;;1.18;87.04
62057;BME280;48016;50.284;18.860;2022-12-07T05:16:49;97601.54;;;1.18;86.95
62057;BME280;48016;50.284;18.860;2022-12-07T05:19:17;97600.48;;;1.17;87.01
62057;BME280;48016;50.284;18.860;2022-12-07T05:21:45;97597.31;;;1.18;86.96
62057;BME280;48016;50.284;18.860;2022-12-07T05:24:13;97602.33;;;1.16;87.08
62057;BME280;48016;50.284;18.860;2022-12-07T05:26:41;97599.42;;;1.17;87.09
62057;BME280;48016;50.284;18.860;2022-12-07T05:29:09;97602.61;;;1.17;87.30
62057;BME280;48016;50.284;18.860;2022-12-07T05:31:37;97601.50;;;1.18;87.34
62057;BME280;48016;50.284;18.860;2022-12-07T05:34:03;97607.36;;;1.17;87.39
62057;BME280;48016;50.284;18.860;2022-12-07T05:36:30;97603.80;;;1.15;87.14
62057;BME280;48016;50.284;18.860;2022-12-07T05:38:58;97607.67;;;1.11;87.20
62057;BME280;48016;50.284;18.860;2022-12-07T05:41:25;97601.99;;;1.07;87.26
62057;BME280;48016;50.284;18.860;2022-12-07T05:44:10;97604.63;;;1.04;87.21
62057;BME280;48016;50.284;18.860;2022-12-07T05:46:37;97604.55;;;1.03;87.19
62057;BME280;48016;50.284;18.860;2022-12-07T05:49:04;97606.27;;;0.99;87.00
62057;BME280;48016;50.284;18.860;2022-12-07T05:51:30;97601.75;;;0.96;87.23
62057;BME280;48016;50.284;18.860;2022-12-07T05:53:57;97599.25;;;0.96;87.10
62057;BME280;48016;50.284;18.860;2022-12-07T05:56:24;97604.09;;;0.96;87.24
62057;BME280;48016;50.284;18.860;2022-12-07T05:58:50;97604.66;;;0.97;87.39
62057;BME280;48016;50.284;18.860;2022-12-07T06:01:36;97605.17;;;0.98;87.45
62057;BME280;48016;50.284;18.860;2022-12-07T06:04:02;97607.02;;;1.00;87.70
62057;BME280;48016;50.284;18.860;2022-12-07T06:06:29;97605.17;;;1.02;87.54
62057;BME280;48016;50.284;18.860;2022-12-07T06:08:55;97608.02;;;1.05;87.74
62057;BME280;48016;50.284;18.860;2022-12-07T06:11:22;97607.45;;;1.04;87.64
62057;BME280;48016;50.284;18.860;2022-12-07T06:14:07;97609.83;;;1.03;87.67
62057;BME280;48016;50.284;18.860;2022-12-07T06:16:34;97614.91;;;1.02;87.62
62057;BME280;48016;50.284;18.860;2022-12-07T06:19:01;97616.35;;;1.01;87.53
62057;BME280;48016;50.284;18.860;2022-12-07T06:21:27;97615.20;;;0.99;87.57
62057;BME280;48016;50.284;18.860;2022-12-07T06:23:54;97620.81;;;0.99;87.47
62057;BME280;48016;50.284;18.860;2022-12-07T06:26:21;97621.06;;;1.00;87.36
62057;BME280;48016;50.284;18.860;2022-12-07T06:28:47;97623.02;;;1.01;87.59
62057;BME280;48016;50.284;18.860;2022-12-07T06:31:14;97624.90;;;1.05;87.64
62057;BME280;48016;50.284;18.860;2022-12-07T06:33:42;97631.08;;;1.06;87.90
62057;BME280;48016;50.284;18.860;2022-12-07T06:36:09;97629.02;;;1.05;87.86
62057;BME280;48016;50.284;18.860;2022-12-07T06:38:36;97632.48;;;1.02;87.62
62057;BME280;48016;50.284;18.860;2022-12-07T06:41:03;97634.37;;;0.99;87.89
62057;BME280;48016;50.284;18.860;2022-12-07T06:43:30;97634.30;;;0.97;87.76
62057;BME280;48016;50.284;18.860;2022-12-07T06:45:56;97633.52;;;0.95;87.69
62057;BME280;48016;50.284;18.860;2022-12-07T06:48:23;97634.43;;;0.93;87.72
62057;BME280;48016;50.284;18.860;2022-12-07T06:50:50;97633.44;;;0.93;87.70
62057;BME280;48016;50.284;18.860;2022-12-07T06:53:16;97633.48;;;0.96;87.89
62057;BME280;48016;50.284;18.860;2022-12-07T06:55:43;97636.25;;;1.01;87.77
62057;BME280;48016;50.284;18.860;2022-12-07T06:58:10;97632.30;;;1.06;87.86
62057;BME280;48016;50.284;18.860;2022-12-07T07:00:36;97630.77;;;1.09;87.94
62057;BME280;48016;50.284;18.860;2022-12-07T07:03:03;97633.26;;;1.12;87.94
62057;BME280;48016;50.284;18.860;2022-12-07T07:05:29;97639.70;;;1.12;87.84
62057;BME280;48016;50.284;18.860;2022-12-07T07:07:56;97634.55;;;1.09;87.68
62057;BME280;48016;50.284;18.860;2022-12-07T07:10:22;97638.86;;;1.06;87.57
62057;BME280;48016;50.284;18.860;2022-12-07T07:12:49;97640.95;;;1.04;87.52
62057;BME280;48016;50.284;18.860;2022-12-07T07:15:15;97642.05;;;1.05;87.51
62057;BME280;48016;50.284;18.860;2022-12-07T07:17:42;97647.65;;;1.07;87.48
62057;BME280;48016;50.284;18.860;2022-12-07T07:20:09;97647.45;;;1.07;87.51
62057;BME280;48016;50.284;18.860;2022-12-07T07:22:36;97649.29;;;1.09;87.66
62057;BME280;48016;50.284;18.860;2022-12-07T07:25:03;97644.95;;;1.10;87.78
62057;BME280;48016;50.284;18.860;2022-12-07T07:27:30;97647.52;;;1.12;87.79
62057;BME280;48016;50.284;18.860;2022-12-07T07:29:56;97643.85;;;1.16;87.98
62057;BME280;48016;50.284;18.860;2022-12-07T07:32:23;97643.85;;;1.19;87.84
62057;BME280;48016;50.284;18.860;2022-12-07T07:34:49;97646.10;;;1.20;87.82
62057;BME280;48016;50.284;18.860;2022-12-07T07:37:16;97648.45;;;1.23;87.72
62057;BME280;48016;50.284;18.860;2022-12-07T07:39:42;97647.14;;;1.25;87.68
62057;BME280;48016;50.284;18.860;2022-12-07T07:42:09;97644.30;;;1.26;87.68
62057;BME280;48016;50.284;18.860;2022-12-07T07:44:35;97644.92;;;1.24;87.57
62057;BME280;48016;50.284;18.860;2022-12-07T07:47:02;97642.92;;;1.24;87.58
62057;BME280;48016;50.284;18.860;2022-12-07T07:49:29;97640.70;;;1.29;87.72
62057;BME280;48016;50.284;18.860;2022-12-07T07:51:55;97643.28;;;1.36;87.58
62057;BME280;48016;50.284;18.860;2022-12-07T07:54:22;97639.48;;;1.42;87.41
62057;BME280;48016;50.284;18.860;2022-12-07T07:56:49;97640.83;;;1.44;87.31
62057;BME280;48016;50.284;18.860;2022-12-07T07:59:15;97643.41;;;1.45;87.85
62057;BME280;48016;50.284;18.860;2022-12-07T08:01:42;97644.73;;;1.50;87.80
62057;BME280;48016;50.284;18.860;2022-12-07T08:04:09;97646.27;;;1.53;87.46
62057;BME280;48016;50.284;18.860;2022-12-07T08:06:35;97642.46;;;1.53;87.46
62057;BME280;48016;50.284;18.860;2022-12-07T08:09:02;97642.73;;;1.55;87.24
62057;BME280;48016;50.284;18.860;2022-12-07T08:11:31;97652.71;;;1.60;87.48
62057;BME280;48016;50.284;18.860;2022-12-07T08:13:57;97653.10;;;1.65;87.55
62057;BME280;48016;50.284;18.860;2022-12-07T08:16:24;97658.02;;;1.71;87.45
62057;BME280;48016;50.284;18.860;2022-12-07T08:18:50;97656.84;;;1.76;87.64
62057;BME280;48016;50.284;18.860;2022-12-07T08:21:17;97653.83;;;1.82;87.56
62057;BME280;48016;50.284;18.860;2022-12-07T08:23:44;97649.62;;;1.80;87.35
62057;BME280;48016;50.284;18.860;2022-12-07T08:26:13;97657.03;;;1.80;87.54
62057;BME280;48016;50.284;18.860;2022-12-07T08:28:40;97663.16;;;1.84;87.37
62057;BME280;48016;50.284;18.860;2022-12-07T08:31:11;97661.14;;;1.86;87.05
62057;BME280;48016;50.284;18.860;2022-12-07T08:33:38;97669.33;;;1.86;87.01
62057;BME280;48016;50.284;18.860;2022-12-07T08:36:08;97671.95;;;1.87;86.93
62057;BME280;48016;50.284;18.860;2022-12-07T08:38:37;97673.19;;;1.88;87.03
62057;BME280;48016;50.284;18.860;2022-12-07T08:41:04;97674.19;;;1.90;87.10
62057;BME280;48016;50.284;18.860;2022-12-07T08:43:31;97682.24;;;1.88;87.06
62057;BME280;48016;50.284;18.860;2022-12-07T08:48:34;97687.84;;;1.85;86.82
62057;BME280;48016;50.284;18.860;2022-12-07T08:51:02;97691.71;;;1.83;87.07
62057;BME280;48016;50.284;18.860;2022-12-07T08:53:29;97690.14;;;1.84;87.03
62057;BME280;48016;50.284;18.860;2022-12-07T08:55:57;97683.93;;;1.86;87.16
62057;BME280;48016;50.284;18.860;2022-12-07T08:58:24;97685.59;;;1.91;86.87
62057;BME280;48016;50.284;18.860;2022-12-07T09:00:51;97683.88;;;1.96;86.88
62057;BME280;48016;50.284;18.860;2022-12-07T09:03:17;97684.33;;;1.96;86.74
62057;BME280;48016;50.284;18.860;2022-12-07T09:05:44;97679.89;;;1.96;86.79
62057;BME280;48016;50.284;18.860;2022-12-07T09:08:11;97675.23;;;1.99;86.75
62057;BME280;48016;50.284;18.860;2022-12-07T09:10:37;97670.38;;;2.01;86.83
62057;BME280;48016;50.284;18.860;2022-12-07T09:13:04;97669.02;;;2.04;86.85
62057;BME280;48016;50.284;18.860;2022-12-07T09:15:31;97668.37;;;2.07;86.66
62057;BME280;48016;50.284;18.860;2022-12-07T09:17:57;97668.98;;;2.10;86.66
62057;BME280;48016;50.284;18.860;2022-12-07T09:20:24;97662.43;;;2.14;86.64
62057;BME280;48016;50.284;18.860;2022-12-07T09:22:50;97654.04;;;2.17;86.66
62057;BME280;48016;50.284;18.860;2022-12-07T09:25:17;97652.92;;;2.18;86.53
62057;BME280;48016;50.284;18.860;2022-12-07T09:27:44;97646.39;;;2.18;86.39
62057;BME280;48016;50.284;18.860;2022-12-07T09:30:10;97649.03;;;2.20;86.70
62057;BME280;48016;50.284;18.860;2022-12-07T09:32:37;97646.41;;;2.23;86.40
62057;BME280;48016;50.284;18.860;2022-12-07T09:35:04;97641.32;;;2.24;86.50
62057;BME280;48016;50.284;18.860;2022-12-07T09:37:30;97643.73;;;2.26;86.50
62057;BME280;48016;50.284;18.860;2022-12-07T09:40:02;97635.52;;;2.29;86.51
62057;BME280;48016;50.284;18.860;2022-12-07T09:42:34;97635.82;;;2.31;86.46
62057;BME280;48016;50.284;18.860;2022-12-07T09:45:04;97627.46;;;2.35;86.49
62057;BME280;48016;50.284;18.860;2022-12-07T09:47:32;97621.66;;;2.36;86.09
62057;BME280;48016;50.284;18.860;2022-12-07T09:50:05;97619.59;;;2.38;86.20
62057;BME280;48016;50.284;18.860;2022-12-07T09:52:32;97617.70;;;2.42;86.21
62057;BME280;48016;50.284;18.860;2022-12-07T09:54:58;97614.30;;;2.42;86.24
62057;BME280;48016;50.284;18.860;2022-12-07T09:57:30;97616.96;;;2.42;86.38
62057;BME280;48016;50.284;18.860;2022-12-07T10:00:01;97616.42;;;2.44;86.27
62057;BME280;48016;50.284;18.860;2022-12-07T10:02:41;97613.92;;;2.44;86.47
62057;BME280;48016;50.284;18.860;2022-12-07T10:05:18;97610.28;;;2.47;86.47
62057;BME280;48016;50.284;18.860;2022-12-07T10:07:46;97602.90;;;2.50;86.45
62057;BME280;48016;50.284;18.860;2022-12-07T10:10:18;97600.11;;;2.55;86.56
62057;BME280;48016;50.284;18.860;2022-12-07T10:13:00;97597.10;;;2.63;86.59
62057;BME280;48016;50.284;18.860;2022-12-07T10:23:30;97582.33;;;2.85;86.54
62057;BME280;48016;50.284;18.860;2022-12-07T10:25:57;97580.90;;;2.88;86.62
62057;BME280;48016;50.284;18.860;2022-12-07T10:28:33;97584.41;;;2.90;86.57
62057;BME280;48016;50.284;18.860;2022-12-07T10:31:18;97585.41;;;2.94;86.41
62057;BME280;48016;50.284;18.860;2022-12-07T10:36:22;97575.48;;;3.02;86.40
62057;BME280;48016;50.284;18.860;2022-12-07T10:39:04;97574.92;;;3.10;86.30
62057;BME280;48016;50.284;18.860;2022-12-07T10:44:27;97573.61;;;3.23;86.19
62057;BME280;48016;50.284;18.860;2022-12-07T10:47:22;97573.85;;;3.26;86.10
62057;BME280;48016;50.284;18.860;2022-12-07T10:52:48;97570.60;;;3.30;86.27
62057;BME280;48016;50.284;18.860;2022-12-07T10:55:25;97569.95;;;3.36;86.26
62057;BME280;48016;50.284;18.860;2022-12-07T11:06:05;97562.08;;;3.37;86.14
62057;BME280;48016;50.284;18.860;2022-12-07T11:08:51;97562.61;;;3.35;86.06
62057;BME280;48016;50.284;18.860;2022-12-07T11:11:36;97565.94;;;3.32;85.86
62057;BME280;48016;50.284;18.860;2022-12-07T11:14:25;97556.95;;;3.30;85.76
62057;BME280;48016;50.284;18.860;2022-12-07T11:16:58;97555.19;;;3.27;85.42
62057;BME280;48016;50.284;18.860;2022-12-07T11:28:18;97538.13;;;3.30;85.31
62057;BME280;48016;50.284;18.860;2022-12-07T11:30:57;97534.98;;;3.30;85.40
62057;BME280;48016;50.284;18.860;2022-12-07T11:36:12;97531.03;;;3.33;85.15
62057;BME280;48016;50.284;18.860;2022-12-07T11:38:56;97527.40;;;3.31;84.80
62057;BME280;48016;50.284;18.860;2022-12-07T11:41:29;97528.84;;;3.27;84.84
62057;BME280;48016;50.284;18.860;2022-12-07T11:44:14;97521.27;;;3.25;84.71
62057;BME280;48016;50.284;18.860;2022-12-07T11:46:49;97515.15;;;3.22;84.57
62057;BME280;48016;50.284;18.860;2022-12-07T11:49:23;97510.56;;;3.21;84.71
62057;BME280;48016;50.284;18.860;2022-12-07T11:51:57;97509.33;;;3.21;84.73
62057;BME280;48016;50.284;18.860;2022-12-07T11:54:32;97512.99;;;3.20;84.74
62057;BME280;48016;50.284;18.860;2022-12-07T11:57:03;97520.03;;;3.25;84.75
62057;BME280;48016;50.284;18.860;2022-12-07T11:59:39;97521.61;;;3.32;84.84
62057;BME280;48016;50.284;18.860;2022-12-07T12:02:15;97523.50;;;3.39;84.70
62057;BME280;48016;50.284;18.860;2022-12-07T12:07:23;97514.35;;;3.47;84.40
62057;BME280;48016;50.284;18.860;2022-12-07T12:09:58;97516.91;;;3.51;84.12
62057;BME280;48016;50.284;18.860;2022-12-07T12:13:08;97520.45;;;3.56;83.98
62057;BME280;48016;50.284;18.860;2022-12-07T12:16:04;97525.56;;;3.63;83.67
62057;BME280;48016;50.284;18.860;2022-12-07T12:18:31;97523.11;;;3.71;83.84
62057;BME280;48016;50.284;18.860;2022-12-07T12:21:09;97521.67;;;3.75;83.77
62057;BME280;48016;50.284;18.860;2022-12-07T12:23:51;97519.21;;;3.73;83.71
62057;BME280;48016;50.284;18.860;2022-12-07T12:26:24;97514.36;;;3.70;83.45
62057;BME280;48016;50.284;18.860;2022-12-07T12:29:02;97512.21;;;3.62;83.14
62057;BME280;48016;50.284;18.860;2022-12-07T12:31:36;97509.01;;;3.54;82.68
62057;BME280;48016;50.284;18.860;2022-12-07T12:34:40;97502.05;;;3.47;82.57
62057;BME280;48016;50.284;18.860;2022-12-07T12:37:45;97503.35;;;3.39;82.32
62057;BME280;48016;50.284;18.860;2022-12-07T12:42:53;97487.55;;;3.33;82.47
62057;BME280;48016;50.284;18.860;2022-12-07T12:48:01;97486.54;;;3.33;82.51
62057;BME280;48016;50.284;18.860;2022-12-07T12:50:29;97483.95;;;3.37;82.58
62057;BME280;48016;50.284;18.860;2022-12-07T12:53:15;97479.36;;;3.37;82.70
62057;BME280;48016;50.284;18.860;2022-12-07T12:56:09;97483.83;;;3.38;82.77
62057;BME280;48016;50.284;18.860;2022-12-07T12:58:39;97483.52;;;3.36;82.29
62057;BME280;48016;50.284;18.860;2022-12-07T13:04:02;97487.17;;;3.27;82.04
62057;BME280;48016;50.284;18.860;2022-12-07T13:06:35;97488.09;;;3.23;81.57
62057;BME280;48016;50.284;18.860;2022-12-07T13:09:15;97495.95;;;3.15;81.55
62057;BME280;48016;50.284;18.860;2022-12-07T13:11:45;97495.55;;;3.12;81.82
62057;BME280;48016;50.284;18.860;2022-12-07T13:20:03;97491.94;;;3.11;81.86
62057;BME280;48016;50.284;18.860;2022-12-07T13:25:23;97507.15;;;3.09;81.79
62057;BME280;48016;50.284;18.860;2022-12-07T13:28:02;97506.83;;;3.05;81.13
62057;BME280;48016;50.284;18.860;2022-12-07T13:30:42;97503.29;;;3.02;81.12
62057;BME280;48016;50.284;18.860;2022-12-07T13:33:11;97508.95;;;2.98;80.94
62057;BME280;48016;50.284;18.860;2022-12-07T13:35:38;97509.44;;;2.97;80.85
62057;BME280;48016;50.284;18.860;2022-12-07T13:38:13;97507.35;;;2.97;80.44
62057;BME280;48016;50.284;18.860;2022-12-07T13:40:41;97513.77;;;2.95;80.32
62057;BME280;48016;50.284;18.860;2022-12-07T13:43:15;97514.85;;;2.91;80.13
62057;BME280;48016;50.284;18.860;2022-12-07T13:45:43;97511.12;;;2.88;80.23
62057;BME280;48016;50.284;18.860;2022-12-07T13:48:23;97517.29;;;2.87;80.36
62057;BME280;48016;50.284;18.860;2022-12-07T13:50:56;97519.48;;;2.85;80.55
62057;BME280;48016;50.284;18.860;2022-12-07T13:53:24;97520.20;;;2.84;80.40
62057;BME280;48016;50.284;18.860;2022-12-07T13:55:58;97526.77;;;2.84;80.68
62057;BME280;48016;50.284;18.860;2022-12-07T13:58:29;97524.10;;;2.84;80.87
62057;BME280;48016;50.284;18.860;2022-12-07T14:00:57;97527.08;;;2.84;80.64
62057;BME280;48016;50.284;18.860;2022-12-07T14:03:32;97527.74;;;2.81;80.30
62057;BME280;48016;50.284;18.860;2022-12-07T14:08:44;97529.94;;;2.70;79.84
62057;BME280;48016;50.284;18.860;2022-12-07T14:11:29;97531.29;;;2.66;79.53
62057;BME280;48016;50.284;18.860;2022-12-07T14:16:36;97536.85;;;2.58;79.68
62057;BME280;48016;50.284;18.860;2022-12-07T14:19:05;97540.88;;;2.57;79.68
62057;BME280;48016;50.284;18.860;2022-12-07T14:21:33;97540.83;;;2.58;80.01
62057;BME280;48016;50.284;18.860;2022-12-07T14:24:18;97547.71;;;2.59;80.07
62057;BME280;48016;50.284;18.860;2022-12-07T14:26:48;97549.17;;;2.61;80.10
62057;BME280;48016;50.284;18.860;2022-12-07T14:31:52;97552.48;;;2.65;80.14
62057;BME280;48016;50.284;18.860;2022-12-07T14:34:23;97547.63;;;2.67;80.18
62057;BME280;48016;50.284;18.860;2022-12-07T14:36:50;97551.29;;;2.66;79.85
62057;BME280;48016;50.284;18.860;2022-12-07T14:39:17;97554.06;;;2.64;79.78
62057;BME280;48016;50.284;18.860;2022-12-07T14:41:44;97558.65;;;2.62;79.94
62057;BME280;48016;50.284;18.860;2022-12-07T14:44:19;97562.17;;;2.62;79.98
62057;BME280;48016;50.284;18.860;2022-12-07T14:46:50;97558.86;;;2.69;80.04
62057;BME280;48016;50.284;18.860;2022-12-07T14:49:17;97556.70;;;2.75;79.89
62057;BME280;48016;50.284;18.860;2022-12-07T14:51:44;97561.68;;;2.77;79.89
62057;BME280;48016;50.284;18.860;2022-12-07T14:54:17;97560.14;;;2.79;79.94
62057;BME280;48016;50.284;18.860;2022-12-07T14:56:45;97562.01;;;2.78;79.97